Time;durP1;ratioP1;P1;durP2;ratioP2;P2;SDS_P1;SDS_P2;PMS_P1;PMS_P2;Temp;Humidity;BMP_temperature;BMP_pressure;BME280_temperature;BME280_humidity;BME280_pressure;Samples;Min_cycle;Max_cycle;Signal;HPM_P1;HPM_P2
2021/10/10 00:01:37;;;;;;;0.77;0.40;;;8.80;99.90;;;;;;5032794;28;20033;-81
2021/10/10 00:04:03;;;;;;;2.40;1.35;;;8.80;99.90;;;;;;5033021;28;20030;-81
2021/10/10 00:06:29;;;;;;;2.22;0.98;;;8.80;99.90;;;;;;5020253;28;20061;-81
2021/10/10 00:08:54;;;;;;;1.75;0.65;;;8.70;99.90;;;;;;5011026;28;20096;-82
2021/10/10 00:11:20;;;;;;;0.70;0.45;;;8.70;99.90;;;;;;5027387;28;20060;-81
2021/10/10 00:13:45;;;;;;;2.38;0.75;;;8.70;99.90;;;;;;5031273;28;20033;-81
2021/10/10 00:16:11;;;;;;;2.22;1.10;;;8.60;99.90;;;;;;5033078;28;20396;-82
2021/10/10 00:18:37;;;;;;;1.83;0.60;;;8.60;99.90;;;;;;5034323;28;20034;-81
2021/10/10 00:21:02;;;;;;;2.70;0.73;;;8.60;99.90;;;;;;5029956;28;20034;-81
2021/10/10 00:23:28;;;;;;;0.85;0.40;;;8.60;99.90;;;;;;5036701;28;20053;-81
2021/10/10 00:25:54;;;;;;;1.75;0.80;;;8.60;99.90;;;;;;5034446;28;20059;-81
2021/10/10 00:28:19;;;;;;;1.95;1.00;;;8.60;99.90;;;;;;5033194;28;20029;-81
2021/10/10 00:30:45;;;;;;;0.70;0.30;;;8.60;99.90;;;;;;5036151;28;20037;-81
2021/10/10 00:33:10;;;;;;;1.30;0.60;;;8.50;99.90;;;;;;5035629;28;20462;-80
2021/10/10 00:35:36;;;;;;;1.40;0.50;;;8.50;99.90;;;;;;5033738;28;20025;-82
2021/10/10 00:38:02;;;;;;;1.38;0.68;;;8.50;99.90;;;;;;5035864;28;20555;-82
2021/10/10 00:40:28;;;;;;;1.48;0.63;;;8.40;99.90;;;;;;5035311;28;20025;-82
2021/10/10 00:42:54;;;;;;;1.05;0.57;;;8.40;99.90;;;;;;5034694;28;20486;-82
2021/10/10 00:45:19;;;;;;;0.93;0.50;;;8.40;99.90;;;;;;5020024;28;20029;-82
2021/10/10 00:47:45;;;;;;;2.33;0.50;;;8.30;99.90;;;;;;5014337;28;20037;-82
2021/10/10 00:50:11;;;;;;;1.42;0.52;;;8.30;99.90;;;;;;5015269;28;20419;-82
2021/10/10 00:52:43;;;;;;;0.93;0.40;;;8.30;99.90;;;;;;5014798;28;20121;-82
2021/10/10 00:55:10;;;;;;;0.95;0.40;;;8.20;99.90;;;;;;5021862;28;20034;-82
2021/10/10 00:57:40;;;;;;;2.03;0.90;;;8.20;99.90;;;;;;5019195;28;20034;-82
2021/10/10 01:00:08;;;;;;;1.48;0.60;;;8.20;99.90;;;;;;5017984;28;20037;-82
2021/10/10 01:02:35;;;;;;;1.02;0.30;;;8.10;99.90;;;;;;5026228;28;20025;-82
2021/10/10 01:05:01;;;;;;;0.63;0.35;;;8.10;99.90;;;;;;5049699;28;20108;-82
2021/10/10 01:07:27;;;;;;;0.77;0.57;;;8.20;99.90;;;;;;5040742;28;20030;-82
2021/10/10 01:09:53;;;;;;;1.70;0.73;;;8.10;99.90;;;;;;5018121;28;20285;-81
2021/10/10 01:12:19;;;;;;;0.93;0.50;;;8.10;99.90;;;;;;5036369;28;20083;-82
2021/10/10 01:14:44;;;;;;;1.80;0.98;;;8.10;99.90;;;;;;5038810;28;20367;-82
2021/10/10 01:17:10;;;;;;;1.00;0.70;;;8.10;99.90;;;;;;5022485;28;20064;-82
2021/10/10 01:19:38;;;;;;;5.70;1.58;;;8.00;99.90;;;;;;5018954;28;20026;-81
2021/10/10 01:22:04;;;;;;;1.10;0.50;;;8.00;99.90;;;;;;5019110;28;20037;-82
2021/10/10 01:24:30;;;;;;;1.23;0.63;;;8.00;99.90;;;;;;5019356;28;20033;-82
2021/10/10 01:26:56;;;;;;;1.45;0.68;;;8.00;99.90;;;;;;5018940;28;20038;-82
2021/10/10 01:29:22;;;;;;;3.38;0.65;;;8.00;99.90;;;;;;5029293;28;20025;-82
2021/10/10 01:31:48;;;;;;;1.58;0.82;;;8.00;99.90;;;;;;5041144;28;20049;-82
2021/10/10 01:34:14;;;;;;;2.80;1.13;;;8.00;99.90;;;;;;5048968;28;20037;-82
2021/10/10 01:36:41;;;;;;;1.90;1.38;;;8.00;99.90;;;;;;5051127;28;20135;-82
2021/10/10 01:39:07;;;;;;;2.75;0.65;;;7.90;99.90;;;;;;5018242;28;20033;-82
2021/10/10 01:41:32;;;;;;;2.88;1.25;;;7.90;99.90;;;;;;5017066;28;20121;-81
2021/10/10 01:43:58;;;;;;;1.10;0.77;;;7.90;99.90;;;;;;5017686;28;20021;-83
2021/10/10 01:46:23;;;;;;;2.63;0.75;;;7.90;99.90;;;;;;5021624;28;20502;-82
2021/10/10 01:48:49;;;;;;;2.05;0.70;;;7.80;99.90;;;;;;5018641;28;20048;-83
2021/10/10 01:51:16;;;;;;;1.75;0.65;;;7.80;99.90;;;;;;5018183;28;20025;-82
2021/10/10 01:53:42;;;;;;;0.77;0.40;;;7.80;99.90;;;;;;5041061;28;20017;-82
2021/10/10 01:56:08;;;;;;;1.40;0.70;;;7.80;99.90;;;;;;5032967;28;20038;-82
2021/10/10 01:58:33;;;;;;;1.77;1.30;;;7.80;99.90;;;;;;5016624;28;20117;-82
2021/10/10 02:00:59;;;;;;;1.67;0.50;;;7.80;99.90;;;;;;5017251;28;20125;-82
2021/10/10 02:03:25;;;;;;;1.52;0.50;;;7.80;99.90;;;;;;5018021;28;20025;-82
2021/10/10 02:05:51;;;;;;;1.15;0.80;;;7.70;99.90;;;;;;5018712;28;20068;-82
2021/10/10 02:08:17;;;;;;;2.22;0.95;;;7.80;99.90;;;;;;5016820;28;20026;-82
2021/10/10 02:10:44;;;;;;;1.38;0.80;;;7.70;99.90;;;;;;5018408;28;20101;-81
2021/10/10 02:13:10;;;;;;;2.83;1.42;;;7.70;99.90;;;;;;5015681;28;20049;-82
2021/10/10 02:15:38;;;;;;;1.90;0.70;;;7.70;99.90;;;;;;5017869;28;20593;-83
2021/10/10 02:18:04;;;;;;;2.70;1.17;;;7.70;99.90;;;;;;5017740;28;20049;-82
2021/10/10 02:20:29;;;;;;;0.90;0.45;;;7.70;99.90;;;;;;5048242;28;20041;-81
2021/10/10 02:22:55;;;;;;;1.85;1.05;;;7.70;99.90;;;;;;5040217;28;20026;-81
2021/10/10 02:25:21;;;;;;;4.88;0.90;;;7.70;99.90;;;;;;5038497;28;20031;-82
2021/10/10 02:27:46;;;;;;;1.83;0.73;;;7.60;99.90;;;;;;5036898;28;20410;-81
2021/10/10 02:30:12;;;;;;;1.17;0.70;;;7.60;99.90;;;;;;5031214;28;20037;-82
2021/10/10 02:32:37;;;;;;;1.95;0.73;;;7.60;99.90;;;;;;5015514;28;20057;-81
2021/10/10 02:35:03;;;;;;;2.80;1.00;;;7.60;99.90;;;;;;5016709;28;20026;-82
2021/10/10 02:37:29;;;;;;;2.63;0.70;;;7.60;99.90;;;;;;5015872;28;20504;-82
2021/10/10 02:39:55;;;;;;;1.92;0.75;;;7.60;99.90;;;;;;5015757;28;20669;-82
2021/10/10 02:42:20;;;;;;;1.10;0.77;;;7.60;99.90;;;;;;5015532;28;20037;-82
2021/10/10 02:44:46;;;;;;;1.45;0.55;;;7.60;99.90;;;;;;5019903;28;20092;-82
2021/10/10 02:47:12;;;;;;;1.83;0.82;;;7.60;99.90;;;;;;5035673;28;20033;-81
2021/10/10 02:49:37;;;;;;;1.05;0.88;;;7.60;99.90;;;;;;5033633;28;20504;-81
2021/10/10 02:52:03;;;;;;;1.63;0.70;;;7.60;99.90;;;;;;5031103;28;20726;-82
2021/10/10 02:54:29;;;;;;;1.70;0.60;;;7.60;99.90;;;;;;5035287;28;20036;-82
2021/10/10 02:56:54;;;;;;;1.25;0.65;;;7.60;99.90;;;;;;5036156;28;20029;-82
2021/10/10 02:59:20;;;;;;;1.40;0.90;;;7.60;99.90;;;;;;5016456;28;20061;-82
2021/10/10 03:01:46;;;;;;;2.07;1.00;;;7.60;99.90;;;;;;5016177;28;20029;-82
2021/10/10 03:04:11;;;;;;;1.52;0.90;;;7.60;99.90;;;;;;5016394;28;20655;-82
2021/10/10 03:06:37;;;;;;;3.22;1.55;;;7.60;99.90;;;;;;5016873;28;20111;-82
2021/10/10 03:09:02;;;;;;;2.97;0.88;;;7.50;99.90;;;;;;5016596;28;20030;-82
2021/10/10 03:11:28;;;;;;;1.40;0.70;;;7.30;99.90;;;;;;5015869;28;20034;-82
2021/10/10 03:13:54;;;;;;;1.55;0.82;;;7.50;99.90;;;;;;5016572;28;20113;-82
2021/10/10 03:16:19;;;;;;;1.77;0.75;;;7.50;99.90;;;;;;5015858;28;20030;-82
2021/10/10 03:18:45;;;;;;;1.88;0.63;;;7.40;99.90;;;;;;5015319;28;20037;-82
2021/10/10 03:21:10;;;;;;;3.45;0.98;;;7.40;99.90;;;;;;5014845;28;20042;-81
2021/10/10 03:23:36;;;;;;;1.67;0.70;;;7.30;99.90;;;;;;5015130;28;20419;-81
2021/10/10 03:26:02;;;;;;;0.55;0.40;;;7.20;99.90;;;;;;5015673;28;20045;-81
2021/10/10 03:28:27;;;;;;;1.40;0.50;;;7.30;99.90;;;;;;5016488;28;20486;-82
2021/10/10 03:30:55;;;;;;;2.37;1.20;;;;;;;;;;5015961;28;20030;-81
2021/10/10 03:33:21;;;;;;;1.10;0.70;;;7.30;99.90;;;;;;5014751;28;20044;-82
2021/10/10 03:35:47;;;;;;;3.30;1.02;;;7.20;99.90;;;;;;5015724;28;20518;-82
2021/10/10 03:38:12;;;;;;;4.32;1.70;;;7.40;99.90;;;;;;5014879;28;20044;-81
2021/10/10 03:40:38;;;;;;;0.93;0.63;;;7.30;99.90;;;;;;5014602;28;20089;-81
2021/10/10 03:43:03;;;;;;;1.13;0.83;;;7.30;99.90;;;;;;5013909;28;20034;-82
2021/10/10 03:45:29;;;;;;;2.47;0.80;;;7.60;99.90;;;;;;5024225;28;20029;-81
2021/10/10 03:47:55;;;;;;;1.52;0.98;;;7.20;99.90;;;;;;5033378;28;20067;-82
2021/10/10 03:50:20;;;;;;;1.25;0.77;;;7.20;99.90;;;;;;5033099;28;20123;-82
2021/10/10 03:52:46;;;;;;;1.63;1.03;;;7.30;99.90;;;;;;5031071;28;20030;-81
2021/10/10 03:57:57;;;;;;;1.63;0.70;;;7.20;99.90;;;;;;5034550;28;20462;-82
2021/10/10 04:00:24;;;;;;;1.47;0.70;;;7.10;99.90;;;;;;5032429;28;20030;-81
2021/10/10 04:02:50;;;;;;;1.17;0.50;;;7.20;99.90;;;;;;5012091;28;20094;-82
2021/10/10 04:07:57;;;;;;;3.05;0.70;;;7.10;99.90;;;;;;5013670;28;20143;-81
2021/10/10 04:10:23;;;;;;;2.17;1.10;;;7.10;99.90;;;;;;5042044;28;20024;-81
2021/10/10 04:12:49;;;;;;;1.07;0.70;;;7.00;99.90;;;;;;5054252;28;20029;-81
2021/10/10 04:15:15;;;;;;;4.47;0.60;;;7.50;99.90;;;;;;5051937;28;20024;-81
2021/10/10 04:17:41;;;;;;;1.17;0.90;;;7.10;99.90;;;;;;5054662;28;20477;-81
2021/10/10 04:20:09;;;;;;;1.63;0.80;;;7.00;99.90;;;;;;5043261;28;20043;-82
2021/10/10 04:22:34;;;;;;;3.43;1.27;;;7.10;99.90;;;;;;5044151;28;20029;-81
2021/10/10 04:25:00;;;;;;;1.60;0.57;;;7.10;99.90;;;;;;5053664;28;20055;-82
2021/10/10 04:27:26;;;;;;;1.50;0.93;;;7.00;99.90;;;;;;5051742;28;20127;-81
2021/10/10 04:29:52;;;;;;;2.83;0.93;;;7.10;99.90;;;;;;5039396;28;20069;-82
2021/10/10 04:32:17;;;;;;;1.07;0.60;;;7.00;99.90;;;;;;5016712;28;20022;-82
2021/10/10 04:34:43;;;;;;;5.07;1.30;;;7.00;99.90;;;;;;5015719;28;20033;-81
2021/10/10 04:37:08;;;;;;;1.00;0.60;;;6.90;99.90;;;;;;5017722;28;20078;-81
2021/10/10 04:39:34;;;;;;;1.03;0.70;;;7.00;99.90;;;;;;5015118;28;20072;-81
2021/10/10 04:42:00;;;;;;;3.57;1.57;;;6.90;99.90;;;;;;5017643;28;20372;-81
2021/10/10 04:44:25;;;;;;;2.73;1.00;;;6.90;99.90;;;;;;5018039;28;20026;-81
2021/10/10 04:46:51;;;;;;;1.77;0.63;;;6.90;99.90;;;;;;5031591;28;20617;-82
2021/10/10 04:49:16;;;;;;;2.77;1.30;;;6.80;99.90;;;;;;5017479;28;20100;-82
2021/10/10 04:51:42;;;;;;;1.60;1.27;;;6.90;99.90;;;;;;5017083;28;20032;-81
2021/10/10 04:54:08;;;;;;;1.87;0.90;;;6.80;99.90;;;;;;5027722;28;20030;-81
2021/10/10 04:56:33;;;;;;;1.37;0.73;;;7.20;99.90;;;;;;5016681;28;20026;-81
2021/10/10 04:58:59;;;;;;;1.23;0.53;;;6.80;99.90;;;;;;5016383;28;20038;-81
2021/10/10 05:01:25;;;;;;;1.37;0.77;;;6.70;99.90;;;;;;5016839;28;20030;-82
2021/10/10 05:03:51;;;;;;;1.83;0.50;;;6.70;99.90;;;;;;5017221;28;20076;-81
2021/10/10 05:06:16;;;;;;;1.53;0.57;;;6.70;99.90;;;;;;5013082;28;20089;-81
2021/10/10 05:08:42;;;;;;;1.73;0.85;;;6.50;99.90;;;;;;5024925;28;20026;-81
2021/10/10 05:11:07;;;;;;;1.97;0.87;;;6.50;99.90;;;;;;5013664;28;20049;-81
2021/10/10 05:13:36;;;;;;;1.20;0.50;;;6.40;99.90;;;;;;5012548;28;20018;-81
2021/10/10 05:16:03;;;;;;;1.13;0.73;;;6.40;99.90;;;;;;5014001;28;20030;-81
2021/10/10 05:18:29;;;;;;;2.13;1.10;;;6.60;99.90;;;;;;5014490;28;20026;-81
2021/10/10 05:20:54;;;;;;;3.83;1.10;;;6.40;99.90;;;;;;5025517;28;20078;-81
2021/10/10 05:23:20;;;;;;;2.00;1.03;;;6.40;99.90;;;;;;5045659;28;20504;-81
2021/10/10 05:25:45;;;;;;;1.33;0.63;;;6.40;99.90;;;;;;5053514;28;20087;-81
2021/10/10 05:28:11;;;;;;;3.40;2.13;;;6.40;99.90;;;;;;5033787;28;20036;-81
2021/10/10 05:30:37;;;;;;;3.07;1.17;;;6.40;99.90;;;;;;5012001;28;20757;-81
2021/10/10 05:33:02;;;;;;;1.27;0.73;;;6.40;99.90;;;;;;5013549;28;20445;-81
2021/10/10 05:35:28;;;;;;;3.27;1.17;;;6.40;99.90;;;;;;5013766;28;20470;-83
2021/10/10 05:37:54;;;;;;;2.80;1.00;;;6.40;99.90;;;;;;5012174;28;20038;-81
2021/10/10 05:40:19;;;;;;;2.87;1.13;;;6.30;99.90;;;;;;5013151;28;20068;-81
2021/10/10 05:42:45;;;;;;;1.30;0.43;;;6.40;99.90;;;;;;5012249;28;20034;-81
2021/10/10 05:45:11;;;;;;;2.47;0.97;;;6.40;99.90;;;;;;5020679;28;20017;-81
2021/10/10 05:47:37;;;;;;;2.83;0.80;;;6.30;99.90;;;;;;5016114;28;20030;-81
2021/10/10 05:50:06;;;;;;;4.40;1.30;;;6.30;99.90;;;;;;5012869;28;20018;-81
2021/10/10 05:52:32;;;;;;;1.20;0.77;;;6.30;99.90;;;;;;5013080;28;20026;-81
2021/10/10 05:54:58;;;;;;;3.17;1.03;;;6.30;99.90;;;;;;5022496;28;20033;-81
2021/10/10 05:57:32;;;;;;;2.17;0.80;;;6.30;99.90;;;;;;5020276;28;20112;-81
2021/10/10 06:00:02;;;;;;;3.20;1.60;;;6.30;99.90;;;;;;5033214;28;20467;-81
2021/10/10 06:02:29;;;;;;;2.27;1.23;;;6.30;99.90;;;;;;5037355;28;20033;-81
2021/10/10 06:04:55;;;;;;;2.37;0.97;;;6.30;99.90;;;;;;5038275;28;20029;-81
2021/10/10 06:07:21;;;;;;;1.73;0.63;;;6.30;99.90;;;;;;5040376;28;20036;-82
2021/10/10 06:09:47;;;;;;;2.60;1.10;;;6.40;99.90;;;;;;5040376;28;20036;-82
2021/10/10 06:12:12;;;;;;;1.37;0.73;;;6.40;99.90;;;;;;5039367;28;20107;-82
2021/10/10 06:14:38;;;;;;;1.27;0.80;;;6.40;99.90;;;;;;5023686;28;20025;-82
2021/10/10 06:17:06;;;;;;;1.93;1.03;;;6.40;99.90;;;;;;5038426;28;20033;-82
2021/10/10 06:19:32;;;;;;;2.13;1.37;;;6.50;99.90;;;;;;5038482;28;20039;-82
2021/10/10 06:21:57;;;;;;;1.27;1.00;;;6.50;99.90;;;;;;5040083;28;20442;-82
2021/10/10 06:24:23;;;;;;;2.00;1.07;;;6.60;99.90;;;;;;5042536;28;20489;-82
2021/10/10 06:26:49;;;;;;;1.13;0.63;;;6.60;99.90;;;;;;5037907;28;20040;-82
2021/10/10 06:29:15;;;;;;;2.43;0.83;;;6.60;99.90;;;;;;5022631;28;20036;-82
2021/10/10 06:31:41;;;;;;;1.40;0.90;;;6.70;99.90;;;;;;5036198;28;20029;-82
2021/10/10 06:34:06;;;;;;;1.50;1.00;;;6.80;99.90;;;;;;5036293;28;20018;-82
2021/10/10 06:36:33;;;;;;;2.33;1.03;;;6.80;99.90;;;;;;5041839;28;20036;-82
2021/10/10 06:38:59;;;;;;;1.30;0.50;;;6.90;99.90;;;;;;5037930;28;20029;-82
2021/10/10 06:41:25;;;;;;;2.30;0.63;;;7.00;99.90;;;;;;5040650;28;20490;-82
2021/10/10 06:43:51;;;;;;;1.43;0.67;;;7.00;99.90;;;;;;5040062;28;20036;-82
2021/10/10 06:46:17;;;;;;;1.93;1.40;;;7.10;99.90;;;;;;5030101;28;20026;-83
2021/10/10 06:48:42;;;;;;;1.70;1.00;;;7.20;99.90;;;;;;5038425;28;20444;-82
2021/10/10 06:51:08;;;;;;;2.53;1.23;;;7.20;99.90;;;;;;5037299;28;20470;-83
2021/10/10 06:53:34;;;;;;;2.00;0.60;;;7.20;99.90;;;;;;5024962;28;20032;-82
2021/10/10 06:56:04;;;;;;;2.20;1.20;;;7.30;99.90;;;;;;5045984;28;20029;-82
2021/10/10 06:58:31;;;;;;;2.63;1.37;;;7.30;99.90;;;;;;5033197;28;20056;-82
2021/10/10 07:00:57;;;;;;;1.50;0.77;;;7.30;99.90;;;;;;5044485;28;20024;-83
2021/10/10 07:03:22;;;;;;;3.30;1.23;;;7.40;99.90;;;;;;5041132;28;20487;-82
2021/10/10 07:05:48;;;;;;;2.03;1.03;;;7.40;99.90;;;;;;5035395;28;20037;-82
2021/10/10 07:08:14;;;;;;;2.10;1.00;;;7.30;99.90;;;;;;5036109;28;20394;-82
2021/10/10 07:10:39;;;;;;;2.67;1.15;;;7.50;99.90;;;;;;5036227;28;20032;-82
2021/10/10 07:13:05;;;;;;;2.30;1.55;;;7.60;99.90;;;;;;5034012;28;20036;-82
2021/10/10 07:15:32;;;;;;;1.50;1.00;;;7.60;99.90;;;;;;5032187;28;20017;-82
2021/10/10 07:18:00;;;;;;;1.55;0.73;;;7.60;99.90;;;;;;5033273;28;20017;-82
2021/10/10 07:23:15;;;;;;;2.13;0.90;;;7.60;99.90;;;;;;5013450;28;20113;-82
2021/10/10 07:25:41;;;;;;;2.27;1.20;;;7.70;99.90;;;;;;5032010;28;20091;-82
2021/10/10 07:28:07;;;;;;;1.92;1.35;;;7.80;99.90;;;;;;5030698;28;20029;-82
2021/10/10 07:30:32;;;;;;;3.03;1.70;;;7.70;99.90;;;;;;5034547;28;20040;-82
2021/10/10 07:32:58;;;;;;;1.45;1.05;;;8.00;99.90;;;;;;5030285;28;20229;-82
2021/10/10 07:35:24;;;;;;;2.03;1.10;;;8.00;99.90;;;;;;5034266;28;20033;-82
2021/10/10 07:37:51;;;;;;;1.50;0.80;;;8.00;99.90;;;;;;5032942;28;20044;-82
2021/10/10 07:40:17;;;;;;;1.17;0.93;;;8.60;99.90;;;;;;5036171;28;20498;-82
2021/10/10 07:42:43;;;;;;;2.23;1.00;;;8.20;99.90;;;;;;5034277;28;20029;-82
2021/10/10 07:45:13;;;;;;;2.47;0.90;;;8.30;99.90;;;;;;5036040;28;20030;-82
2021/10/10 07:50:09;;;;;;;2.37;1.60;;;8.40;99.90;;;;;;5032655;28;20022;-81
2021/10/10 07:52:35;;;;;;;3.33;1.17;;;8.40;99.90;;;;;;5036169;28;20035;-82
2021/10/10 07:55:00;;;;;;;1.45;0.93;;;8.50;99.90;;;;;;5031067;28;20093;-81
2021/10/10 07:57:28;;;;;;;1.15;0.93;;;8.90;99.90;;;;;;5028698;28;20029;-82
2021/10/10 07:59:54;;;;;;;2.58;1.40;;;8.60;99.90;;;;;;5036111;28;20030;-82
2021/10/10 08:02:19;;;;;;;2.22;1.15;;;8.70;99.90;;;;;;5017800;28;20037;-82
2021/10/10 08:04:45;;;;;;;2.17;0.98;;;8.70;99.90;;;;;;5013480;28;20125;-81
2021/10/10 08:07:11;;;;;;;1.42;0.63;;;8.70;99.90;;;;;;5038017;28;20030;-81
2021/10/10 08:09:36;;;;;;;2.42;1.00;;;8.70;99.90;;;;;;5029954;28;20091;-80
2021/10/10 08:12:02;;;;;;;1.35;0.70;;;8.80;99.90;;;;;;5043599;28;20071;-81
2021/10/10 08:14:28;;;;;;;2.53;1.00;;;8.90;99.90;;;;;;5034441;28;20033;-81
2021/10/10 08:16:55;;;;;;;2.33;1.13;;;9.00;99.90;;;;;;5035325;28;20156;-81
2021/10/10 08:19:21;;;;;;;4.03;1.52;;;9.10;99.90;;;;;;5022072;28;20030;-81
2021/10/10 08:21:48;;;;;;;2.80;0.93;;;9.20;99.90;;;;;;5020103;28;20025;-81
2021/10/10 08:24:16;;;;;;;2.45;1.10;;;9.30;99.90;;;;;;5033361;28;20029;-82
2021/10/10 08:26:42;;;;;;;2.42;1.17;;;9.50;99.90;;;;;;5028377;28;20048;-81
2021/10/10 08:29:08;;;;;;;1.80;0.80;;;9.40;99.90;;;;;;5030702;22;20340;-80
2021/10/10 08:31:33;;;;;;;4.25;2.13;;;9.40;99.90;;;;;;5023662;28;20026;-80
2021/10/10 08:33:59;;;;;;;3.00;1.60;;;9.50;99.90;;;;;;5022789;28;20558;-79
2021/10/10 08:36:25;;;;;;;3.58;1.23;;;9.50;99.90;;;;;;5021711;28;20053;-82
2021/10/10 08:38:52;;;;;;;1.60;0.80;;;9.50;99.90;;;;;;5028017;28;20103;-80
2021/10/10 08:41:25;;;;;;;2.22;1.38;;;9.60;99.90;;;;;;5025601;28;20030;-81
2021/10/10 08:43:54;;;;;;;2.95;1.02;;;9.60;99.90;;;;;;5033327;28;20032;-81
2021/10/10 08:46:24;;;;;;;2.85;1.25;;;9.60;99.90;;;;;;5022181;28;20144;-81
2021/10/10 08:48:51;;;;;;;3.38;1.25;;;9.70;99.90;;;;;;5012521;28;20100;-82
2021/10/10 08:51:21;;;;;;;2.88;1.42;;;9.80;99.90;;;;;;5018856;28;20022;-82
2021/10/10 08:53:47;;;;;;;1.55;0.98;;;9.80;99.90;;;;;;5002210;28;20120;-81
2021/10/10 08:56:13;;;;;;;2.08;0.95;;;9.80;99.90;;;;;;5032938;28;20769;-82
2021/10/10 08:58:42;;;;;;;2.92;1.08;;;9.80;99.90;;;;;;5032062;28;20161;-82
2021/10/10 09:01:15;;;;;;;3.00;1.17;;;9.80;99.90;;;;;;4990351;28;20542;-80
2021/10/10 09:03:46;;;;;;;1.83;0.93;;;10.00;99.90;;;;;;5027898;28;20449;-82
2021/10/10 09:06:12;;;;;;;1.40;0.90;;;10.40;99.90;;;;;;5029527;28;20029;-81
2021/10/10 09:08:38;;;;;;;3.70;1.30;;;10.20;99.90;;;;;;5029368;28;20026;-81
2021/10/10 09:11:03;;;;;;;3.10;2.00;;;10.30;99.90;;;;;;5012452;28;20456;-82
2021/10/10 09:13:34;;;;;;;2.25;0.98;;;10.40;99.90;;;;;;5029856;28;20018;-81
2021/10/10 09:16:00;;;;;;;2.78;1.80;;;10.50;99.90;;;;;;5025235;28;20025;-82
2021/10/10 09:18:39;;;;;;;3.05;1.20;;;10.80;99.90;;;;;;5011559;28;20038;-82
2021/10/10 09:21:26;;;;;;;2.58;1.58;;;10.60;99.90;;;;;;5034483;28;20026;-82
2021/10/10 09:23:54;;;;;;;3.30;1.25;;;10.60;99.90;;;;;;5031615;28;20010;-81
2021/10/10 09:26:21;;;;;;;2.38;1.20;;;11.30;99.90;;;;;;5030020;28;20022;-80
2021/10/10 09:28:48;;;;;;;2.60;1.23;;;10.90;99.90;;;;;;5034902;28;20038;-81
2021/10/10 09:31:15;;;;;;;1.85;1.08;;;10.80;99.90;;;;;;5050406;28;20085;-81
2021/10/10 09:33:57;;;;;;;2.05;0.75;;;11.00;99.90;;;;;;5047410;28;20044;-81
2021/10/10 09:36:26;;;;;;;1.95;1.02;;;10.90;99.90;;;;;;5028774;28;20022;-80
2021/10/10 09:39:15;;;;;;;2.70;1.38;;;11.70;99.90;;;;;;5030374;28;20526;-82
2021/10/10 09:41:54;;;;;;;1.90;0.77;;;11.10;99.90;;;;;;5013668;28;20045;-82
2021/10/10 09:44:27;;;;;;;3.22;1.50;;;11.40;99.90;;;;;;5030216;28;20105;-81
2021/10/10 09:46:57;;;;;;;2.25;1.08;;;11.40;99.90;;;;;;5026392;28;20033;-82
2021/10/10 09:49:32;;;;;;;1.00;0.60;;;11.50;99.90;;;;;;5018264;28;20056;-81
2021/10/10 09:52:14;;;;;;;3.63;1.10;;;11.60;99.90;;;;;;5009208;28;20025;-81
2021/10/10 09:54:59;;;;;;;2.45;1.08;;;11.60;99.90;;;;;;5029506;28;20098;-81
2021/10/10 09:57:33;;;;;;;2.50;1.45;;;11.80;99.90;;;;;;5021274;28;20038;-80
2021/10/10 09:59:59;;;;;;;2.17;1.25;;;11.70;99.90;;;;;;5031821;28;20025;-82
2021/10/10 10:02:43;;;;;;;1.80;0.75;;;11.60;99.90;;;;;;4999836;28;20036;-82
2021/10/10 10:05:21;;;;;;;2.33;0.80;;;11.50;99.90;;;;;;5011106;28;20056;-82
2021/10/10 10:07:48;;;;;;;3.75;1.00;;;12.00;99.90;;;;;;5028815;28;20489;-82
2021/10/10 10:10:14;;;;;;;2.03;0.77;;;11.30;99.90;;;;;;5023445;28;20026;-79
2021/10/10 10:12:39;;;;;;;2.47;1.20;;;11.60;99.90;;;;;;5013584;28;20044;-81
2021/10/10 10:15:05;;;;;;;4.93;1.10;;;11.70;99.90;;;;;;5018203;28;20038;-82
2021/10/10 10:17:33;;;;;;;2.63;1.10;;;11.60;99.90;;;;;;4995688;28;20026;-82
2021/10/10 10:20:01;;;;;;;1.42;0.80;;;11.60;99.90;;;;;;5016202;28;20037;-83
2021/10/10 10:22:33;;;;;;;4.03;1.17;;;11.60;99.90;;;;;;5018530;28;20057;-82
2021/10/10 10:24:59;;;;;;;1.92;1.10;;;11.90;99.90;;;;;;5017427;28;20037;-83
2021/10/10 10:27:25;;;;;;;4.13;1.75;;;12.70;99.90;;;;;;5026099;28;20030;-81
2021/10/10 10:29:54;;;;;;;2.35;1.10;;;12.20;99.90;;;;;;5009066;28;20046;-79
2021/10/10 10:32:22;;;;;;;2.17;1.05;;;12.30;99.90;;;;;;5028235;28;20130;-81
2021/10/10 10:35:12;;;;;;;2.78;1.35;;;12.30;99.90;;;;;;5012997;28;20029;-81
2021/10/10 10:37:44;;;;;;;1.90;1.10;;;12.50;99.90;;;;;;5008641;28;20037;-81
2021/10/10 10:40:16;;;;;;;1.58;0.75;;;12.50;99.90;;;;;;5006405;28;20044;-81
2021/10/10 10:42:51;;;;;;;2.30;1.05;;;12.20;99.90;;;;;;5025749;28;20029;-82
2021/10/10 10:45:35;;;;;;;2.03;0.85;;;12.40;99.90;;;;;;5032809;28;20483;-80
2021/10/10 10:48:27;;;;;;;2.17;0.75;;;12.30;99.90;;;;;;5027451;28;20030;-82
2021/10/10 10:51:40;;;;;;;1.27;0.65;;;12.50;99.90;;;;;;5029696;28;20032;-80
2021/10/10 10:54:41;;;;;;;1.00;0.57;;;12.50;99.90;;;;;;5017853;28;20061;-82
2021/10/10 10:57:38;;;;;;;4.07;0.85;;;13.10;99.90;;;;;;4957452;28;20072;-82
2021/10/10 11:00:09;;;;;;;2.42;0.77;;;12.40;99.90;;;;;;4994549;28;20038;-81
2021/10/10 11:02:48;;;;;;;2.20;0.85;;;12.70;99.90;;;;;;5009402;28;20486;-81
2021/10/10 11:05:41;;;;;;;2.17;0.98;;;12.80;99.90;;;;;;5026504;28;20026;-82
2021/10/10 11:08:30;;;;;;;2.67;1.48;;;13.00;99.90;;;;;;5007635;28;20057;-81
2021/10/10 11:11:07;;;;;;;1.65;1.00;;;13.10;99.90;;;;;;5019286;28;20145;-81
2021/10/10 11:13:54;;;;;;;2.33;0.70;;;13.20;99.90;;;;;;5024665;28;20033;-81
2021/10/10 11:16:21;;;;;;;3.40;1.75;;;13.30;99.90;;;;;;5014355;28;20018;-81
2021/10/10 11:18:58;;;;;;;3.45;1.10;;;13.10;99.90;;;;;;5019784;28;20053;-82
2021/10/10 11:21:29;;;;;;;1.92;0.77;;;13.40;99.90;;;;;;5034273;28;20040;-82
2021/10/10 11:23:57;;;;;;;2.17;0.93;;;13.30;99.90;;;;;;5031571;28;20029;-81
2021/10/10 11:26:24;;;;;;;1.60;0.75;;;13.30;99.90;;;;;;5009514;28;20030;-81
2021/10/10 11:28:55;;;;;;;2.53;1.13;;;13.30;99.90;;;;;;5011846;28;20061;-81
2021/10/10 11:31:23;;;;;;;2.20;0.80;;;13.40;99.90;;;;;;5024579;28;20021;-81
2021/10/10 11:33:59;;;;;;;2.72;1.42;;;13.40;99.90;;;;;;5038957;28;20044;-81
2021/10/10 11:36:38;;;;;;;2.22;1.00;;;13.40;99.90;;;;;;5024750;28;20147;-81
2021/10/10 11:39:11;;;;;;;2.10;0.95;;;13.30;99.90;;;;;;5037911;28;20056;-82
2021/10/10 11:42:04;;;;;;;1.75;0.70;;;13.30;99.90;;;;;;5031980;28;20550;-81
2021/10/10 11:44:42;;;;;;;2.20;1.15;;;13.50;99.90;;;;;;5020722;28;20091;-82
2021/10/10 11:47:24;;;;;;;2.00;0.70;;;13.50;99.90;;;;;;5025724;28;20079;-80
2021/10/10 11:49:57;;;;;;;;;;;13.70;99.90;;;;;;5014374;28;20057;-81
2021/10/10 11:52:39;;;;;;;2.53;0.57;;;13.70;99.70;;;;;;5033767;28;20004;-82
2021/10/10 11:55:25;;;;;;;;;;;13.80;99.90;;;;;;5015287;28;20423;-80
2021/10/10 11:58:02;;;;;;;1.77;0.85;;;13.90;99.90;;;;;;5028331;28;19912;-81
2021/10/10 12:00:33;;;;;;;1.08;0.52;;;14.60;99.90;;;;;;5005685;28;20030;-81
2021/10/10 12:03:10;;;;;;;2.40;1.07;;;14.00;99.30;;;;;;4998003;28;20026;-80
2021/10/10 12:05:43;;;;;;;1.20;0.60;;;13.80;99.50;;;;;;5014778;28;20352;-82
2021/10/10 12:08:20;;;;;;;2.15;0.98;;;13.70;99.40;;;;;;5006535;28;20072;-81
2021/10/10 12:10:48;;;;;;;1.60;0.50;;;13.60;99.60;;;;;;4996113;28;20022;-82
2021/10/10 12:13:14;;;;;;;1.38;0.52;;;13.70;99.80;;;;;;5033541;28;20045;-82
2021/10/10 12:15:40;;;;;;;2.60;1.23;;;13.90;99.10;;;;;;5023422;28;20018;-81
2021/10/10 12:18:14;;;;;;;2.63;1.13;;;13.80;99.00;;;;;;4998189;28;20403;-80
2021/10/10 12:20:41;;;;;;;1.48;0.80;;;13.70;99.20;;;;;;5016122;28;20033;-82
2021/10/10 12:23:09;;;;;;;1.88;0.75;;;13.90;99.90;;;;;;5014761;28;20609;-82
2021/10/10 12:25:40;;;;;;;1.95;0.82;;;13.70;99.10;;;;;;5007610;28;20029;-82
2021/10/10 12:28:13;;;;;;;2.10;0.90;;;14.00;98.70;;;;;;4994460;28;20031;-82
2021/10/10 12:30:41;;;;;;;3.03;1.20;;;14.10;99.10;;;;;;5016270;28;20084;-81
2021/10/10 12:33:31;;;;;;;1.95;1.10;;;14.30;98.60;;;;;;5010185;28;20017;-82
2021/10/10 12:36:06;;;;;;;1.35;0.73;;;14.20;98.30;;;;;;5006610;28;20038;-81
2021/10/10 12:38:44;;;;;;;1.92;0.73;;;14.20;98.30;;;;;;5028103;28;20022;-83
2021/10/10 12:41:18;;;;;;;4.25;1.40;;;14.40;98.40;;;;;;5018746;28;20026;-83
2021/10/10 12:43:45;;;;;;;1.27;0.65;;;14.50;98.70;;;;;;5019324;28;20431;-82
2021/10/10 12:46:10;;;;;;;2.53;1.23;;;14.70;97.70;;;;;;4998278;28;20197;-83
2021/10/10 12:48:36;;;;;;;1.75;0.68;;;15.10;97.80;;;;;;5011583;28;20060;-82
2021/10/10 12:51:04;;;;;;;3.28;1.55;;;15.10;97.90;;;;;;5010953;28;20053;-83
2021/10/10 12:53:32;;;;;;;2.08;0.98;;;15.10;97.70;;;;;;5007840;28;20286;-82
2021/10/10 12:56:14;;;;;;;3.42;1.58;;;15.00;97.40;;;;;;5018948;28;20022;-83
2021/10/10 12:58:47;;;;;;;3.30;0.93;;;15.10;96.90;;;;;;5007853;28;20018;-83
2021/10/10 13:01:12;;;;;;;2.05;1.10;;;15.20;97.10;;;;;;5007575;28;20053;-82
2021/10/10 13:03:38;;;;;;;2.83;1.00;;;14.90;97.20;;;;;;5038232;28;20386;-83
2021/10/10 13:06:04;;;;;;;3.58;1.27;;;15.50;97.40;;;;;;5016477;28;20026;-83
2021/10/10 13:08:29;;;;;;;2.33;0.95;;;15.80;97.90;;;;;;5042880;28;20022;-83
2021/10/10 13:10:55;;;;;;;3.47;0.93;;;15.50;97.00;;;;;;5031828;28;20030;-82
2021/10/10 13:13:20;;;;;;;3.17;1.10;;;15.60;97.10;;;;;;5043649;28;20482;-83